Mullinville, KS (67109)

6:56 PM CST on February 07, 2016 (GMT -0600)
Smiley's | | Change Station
CLOSE
Current Station
Personal Weather Station
Location: Bucklin, KS
Elevation: 2434 ft
Nearby Weather Stations

Elev 2434 ft 37.55 °N, 99.64 °W | Updated 16 seconds ago

Overcast
Overcast
41.7 °F
Feels Like 36 °F
N
8.9
Wind Variable Wind from North
Gusts 12.3 mph

Today
High -- | Low -- °F
--% Chance of Precip.
Yesterday
High -- | Low -- °F
Precip. -- in
Pressure 30.33 in
Visibility 10.0 miles
Clouds Overcast 9000 ft
Windchill 36 °F
Dew Point 15 °F
Humidity 33%
Rainfall 0.18 in
Snow Depth Not available.
7:36 AM 6:08 PM
Waning Crescent, 0% visible
METAR KDDC 080052Z AUTO 32021G29KT 10SM OVC090 03/M11 A3028 RMK AO2 PK WND 32029/0046 SLP269 T00331111
Pressure 30.33 in
Visibility 10.0 miles
Clouds Overcast 9000 ft
Windchill 36 °F
Dew Point 15 °F
Humidity 33%
Rainfall 0.18 in
Snow Depth Not available.
7:36 AM 6:08 PM
Waning Crescent, 0% visible
METAR KDDC 080052Z AUTO 32021G29KT 10SM OVC090 03/M11 A3028 RMK AO2 PK WND 32029/0046 SLP269 T00331111

10-Day Weather Forecast

Almanac

Astronomy

Feb. 07, 2016 Rise Set
Actual Time
Civil Twilight
Nautical Twilight
Astronomical Twilight
Moon
Length of Visible Light
Length of Day
Tomorrow will be .
, % of the Moon is Illuminated

Today's Extremes

State Highs State Lows

Community

WunderPhotos

Upload Photos

1,891,339 photos uploaded!

WunderBlog® & News

Nearby

Air Quality

  Air Quality AQ Index Pollutant
Not available.

Snow Depth

Station Depth Elevation

Earthquake Activity

City Distance Mag. Time & Date
Minimum magnitude displayed is 2.5.

Coastal Water Temperatures

Place Temperature

Stations

Nearby Weather Stations

Station Location Temp. Windchill Dew Point Humidity Wind Precip. Elev Updated Type
                   

Watches & Warnings

There are currently no watches in effect.